sensor_id;sensor_type;location;lat;lon;timestamp;P1;durP1;ratioP1;P2;durP2;ratioP2
18159;SDS011;9205;52.032;4.314;2023-04-21T00:01:20;12.47;;;7.27;;
18159;SDS011;9205;52.032;4.314;2023-04-21T00:03:49;14.53;;;6.47;;
18159;SDS011;9205;52.032;4.314;2023-04-21T00:06:16;12.27;;;6.57;;
18159;SDS011;9205;52.032;4.314;2023-04-21T00:08:46;14.67;;;7.23;;
18159;SDS011;9205;52.032;4.314;2023-04-21T00:11:14;14.50;;;7.27;;
18159;SDS011;9205;52.032;4.314;2023-04-21T00:13:41;13.33;;;6.87;;
18159;SDS011;9205;52.032;4.314;2023-04-21T00:16:08;12.13;;;6.87;;
18159;SDS011;9205;52.032;4.314;2023-04-21T00:18:36;14.37;;;6.80;;
18159;SDS011;9205;52.032;4.314;2023-04-21T00:21:05;11.23;;;6.70;;
18159;SDS011;9205;52.032;4.314;2023-04-21T00:23:32;13.03;;;6.70;;
18159;SDS011;9205;52.032;4.314;2023-04-21T00:25:59;14.20;;;7.33;;
18159;SDS011;9205;52.032;4.314;2023-04-21T00:28:27;11.43;;;6.50;;
18159;SDS011;9205;52.032;4.314;2023-04-21T00:30:56;13.17;;;5.80;;
18159;SDS011;9205;52.032;4.314;2023-04-21T00:33:24;10.67;;;6.07;;
18159;SDS011;9205;52.032;4.314;2023-04-21T00:35:53;11.80;;;6.83;;
18159;SDS011;9205;52.032;4.314;2023-04-21T00:38:24;11.57;;;6.83;;
18159;SDS011;9205;52.032;4.314;2023-04-21T00:40:51;15.17;;;7.40;;
18159;SDS011;9205;52.032;4.314;2023-04-21T00:43:19;13.60;;;6.90;;
18159;SDS011;9205;52.032;4.314;2023-04-21T00:45:46;14.80;;;7.00;;
18159;SDS011;9205;52.032;4.314;2023-04-21T00:48:13;15.03;;;7.17;;
18159;SDS011;9205;52.032;4.314;2023-04-21T00:50:41;14.93;;;7.40;;
18159;SDS011;9205;52.032;4.314;2023-04-21T00:53:10;12.73;;;6.20;;
18159;SDS011;9205;52.032;4.314;2023-04-21T00:55:41;13.17;;;6.90;;
18159;SDS011;9205;52.032;4.314;2023-04-21T00:58:08;12.93;;;6.97;;
18159;SDS011;9205;52.032;4.314;2023-04-21T01:00:36;12.77;;;6.80;;
18159;SDS011;9205;52.032;4.314;2023-04-21T01:03:04;15.07;;;7.27;;
18159;SDS011;9205;52.032;4.314;2023-04-21T01:05:32;10.30;;;6.63;;
18159;SDS011;9205;52.032;4.314;2023-04-21T01:08:00;14.20;;;7.13;;
18159;SDS011;9205;52.032;4.314;2023-04-21T01:10:28;12.80;;;6.90;;
18159;SDS011;9205;52.032;4.314;2023-04-21T01:12:56;15.43;;;7.37;;
18159;SDS011;9205;52.032;4.314;2023-04-21T01:15:23;13.13;;;6.57;;
18159;SDS011;9205;52.032;4.314;2023-04-21T01:17:53;14.87;;;7.67;;
18159;SDS011;9205;52.032;4.314;2023-04-21T01:20:21;14.80;;;7.67;;
18159;SDS011;9205;52.032;4.314;2023-04-21T01:22:49;13.83;;;7.90;;
18159;SDS011;9205;52.032;4.314;2023-04-21T01:25:16;15.50;;;7.77;;
18159;SDS011;9205;52.032;4.314;2023-04-21T01:27:46;14.23;;;7.00;;
18159;SDS011;9205;52.032;4.314;2023-04-21T01:30:13;13.43;;;7.33;;
18159;SDS011;9205;52.032;4.314;2023-04-21T01:32:40;14.23;;;7.60;;
18159;SDS011;9205;52.032;4.314;2023-04-21T01:35:08;13.10;;;6.70;;
18159;SDS011;9205;52.032;4.314;2023-04-21T01:37:37;15.77;;;7.47;;
18159;SDS011;9205;52.032;4.314;2023-04-21T01:40:07;12.30;;;6.80;;
18159;SDS011;9205;52.032;4.314;2023-04-21T01:42:39;15.07;;;7.17;;
18159;SDS011;9205;52.032;4.314;2023-04-21T01:45:08;13.03;;;7.40;;
18159;SDS011;9205;52.032;4.314;2023-04-21T01:47:36;15.73;;;7.57;;
18159;SDS011;9205;52.032;4.314;2023-04-21T01:50:04;15.33;;;7.37;;
18159;SDS011;9205;52.032;4.314;2023-04-21T01:52:33;17.20;;;8.00;;
18159;SDS011;9205;52.032;4.314;2023-04-21T01:55:01;15.90;;;6.80;;
18159;SDS011;9205;52.032;4.314;2023-04-21T01:57:29;15.67;;;6.93;;
18159;SDS011;9205;52.032;4.314;2023-04-21T01:59:57;16.13;;;7.67;;
18159;SDS011;9205;52.032;4.314;2023-04-21T02:02:25;15.73;;;7.63;;
18159;SDS011;9205;52.032;4.314;2023-04-21T02:04:52;18.37;;;8.27;;
18159;SDS011;9205;52.032;4.314;2023-04-21T02:07:20;14.87;;;7.73;;
18159;SDS011;9205;52.032;4.314;2023-04-21T02:09:47;17.20;;;7.37;;
18159;SDS011;9205;52.032;4.314;2023-04-21T02:12:14;14.90;;;7.50;;
18159;SDS011;9205;52.032;4.314;2023-04-21T02:14:42;15.53;;;8.63;;
18159;SDS011;9205;52.032;4.314;2023-04-21T02:17:11;15.70;;;7.90;;
18159;SDS011;9205;52.032;4.314;2023-04-21T02:19:38;16.10;;;7.73;;
18159;SDS011;9205;52.032;4.314;2023-04-21T02:22:06;15.03;;;7.63;;
18159;SDS011;9205;52.032;4.314;2023-04-21T02:24:34;15.37;;;8.17;;
18159;SDS011;9205;52.032;4.314;2023-04-21T02:27:02;19.10;;;8.07;;
18159;SDS011;9205;52.032;4.314;2023-04-21T02:29:29;16.07;;;8.13;;
18159;SDS011;9205;52.032;4.314;2023-04-21T02:31:59;19.07;;;8.60;;
18159;SDS011;9205;52.032;4.314;2023-04-21T02:34:26;18.63;;;8.70;;
18159;SDS011;9205;52.032;4.314;2023-04-21T02:36:53;17.83;;;8.07;;
18159;SDS011;9205;52.032;4.314;2023-04-21T02:39:20;15.20;;;7.40;;
18159;SDS011;9205;52.032;4.314;2023-04-21T02:41:48;18.83;;;8.40;;
18159;SDS011;9205;52.032;4.314;2023-04-21T02:44:15;15.33;;;7.90;;
18159;SDS011;9205;52.032;4.314;2023-04-21T02:46:43;15.07;;;7.80;;
18159;SDS011;9205;52.032;4.314;2023-04-21T02:49:11;16.00;;;8.03;;
18159;SDS011;9205;52.032;4.314;2023-04-21T02:51:39;16.43;;;8.17;;
18159;SDS011;9205;52.032;4.314;2023-04-21T02:54:06;16.83;;;7.90;;
18159;SDS011;9205;52.032;4.314;2023-04-21T02:56:33;16.60;;;8.27;;
18159;SDS011;9205;52.032;4.314;2023-04-21T02:59:00;16.00;;;8.50;;
18159;SDS011;9205;52.032;4.314;2023-04-21T03:01:28;15.17;;;7.53;;
18159;SDS011;9205;52.032;4.314;2023-04-21T03:03:55;13.70;;;8.03;;
18159;SDS011;9205;52.032;4.314;2023-04-21T03:06:24;14.97;;;7.83;;
18159;SDS011;9205;52.032;4.314;2023-04-21T03:08:52;19.47;;;8.43;;
18159;SDS011;9205;52.032;4.314;2023-04-21T03:11:19;13.60;;;7.70;;
18159;SDS011;9205;52.032;4.314;2023-04-21T03:13:46;15.40;;;8.30;;
18159;SDS011;9205;52.032;4.314;2023-04-21T03:16:13;18.10;;;7.87;;
18159;SDS011;9205;52.032;4.314;2023-04-21T03:18:42;19.70;;;8.23;;
18159;SDS011;9205;52.032;4.314;2023-04-21T03:21:10;14.87;;;7.67;;
18159;SDS011;9205;52.032;4.314;2023-04-21T03:23:39;20.53;;;8.37;;
18159;SDS011;9205;52.032;4.314;2023-04-21T03:26:07;17.30;;;8.30;;
18159;SDS011;9205;52.032;4.314;2023-04-21T03:28:34;15.80;;;7.40;;
18159;SDS011;9205;52.032;4.314;2023-04-21T03:31:01;16.80;;;7.60;;
18159;SDS011;9205;52.032;4.314;2023-04-21T03:33:28;18.93;;;7.93;;
18159;SDS011;9205;52.032;4.314;2023-04-21T03:35:56;16.83;;;7.23;;
18159;SDS011;9205;52.032;4.314;2023-04-21T03:38:23;18.67;;;8.67;;
18159;SDS011;9205;52.032;4.314;2023-04-21T03:40:51;17.53;;;7.57;;
18159;SDS011;9205;52.032;4.314;2023-04-21T03:43:19;15.83;;;8.03;;
18159;SDS011;9205;52.032;4.314;2023-04-21T03:45:46;16.60;;;7.93;;
18159;SDS011;9205;52.032;4.314;2023-04-21T03:48:13;17.30;;;8.43;;
18159;SDS011;9205;52.032;4.314;2023-04-21T03:50:40;17.43;;;8.10;;
18159;SDS011;9205;52.032;4.314;2023-04-21T03:53:07;16.37;;;8.30;;
18159;SDS011;9205;52.032;4.314;2023-04-21T03:55:34;19.50;;;8.87;;
18159;SDS011;9205;52.032;4.314;2023-04-21T03:58:03;19.83;;;8.63;;
18159;SDS011;9205;52.032;4.314;2023-04-21T04:00:31;20.17;;;8.73;;
18159;SDS011;9205;52.032;4.314;2023-04-21T04:02:59;21.23;;;9.23;;
18159;SDS011;9205;52.032;4.314;2023-04-21T04:05:26;20.80;;;9.43;;
18159;SDS011;9205;52.032;4.314;2023-04-21T04:07:53;24.73;;;10.33;;
18159;SDS011;9205;52.032;4.314;2023-04-21T04:10:20;22.73;;;9.67;;
18159;SDS011;9205;52.032;4.314;2023-04-21T04:12:47;23.20;;;9.80;;
18159;SDS011;9205;52.032;4.314;2023-04-21T04:15:16;21.10;;;10.10;;
18159;SDS011;9205;52.032;4.314;2023-04-21T04:17:44;20.93;;;9.60;;
18159;SDS011;9205;52.032;4.314;2023-04-21T04:20:11;22.63;;;10.10;;
18159;SDS011;9205;52.032;4.314;2023-04-21T04:22:38;22.80;;;9.97;;
18159;SDS011;9205;52.032;4.314;2023-04-21T04:25:05;23.17;;;9.97;;
18159;SDS011;9205;52.032;4.314;2023-04-21T04:27:33;22.50;;;10.70;;
18159;SDS011;9205;52.032;4.314;2023-04-21T04:30:01;21.47;;;9.63;;
18159;SDS011;9205;52.032;4.314;2023-04-21T04:32:31;23.70;;;11.10;;
18159;SDS011;9205;52.032;4.314;2023-04-21T04:34:58;21.97;;;10.33;;
18159;SDS011;9205;52.032;4.314;2023-04-21T04:37:26;25.07;;;10.37;;
18159;SDS011;9205;52.032;4.314;2023-04-21T04:39:53;22.47;;;9.53;;
18159;SDS011;9205;52.032;4.314;2023-04-21T04:42:21;25.13;;;10.27;;
18159;SDS011;9205;52.032;4.314;2023-04-21T04:44:51;22.50;;;9.83;;
18159;SDS011;9205;52.032;4.314;2023-04-21T04:47:19;21.87;;;9.47;;
18159;SDS011;9205;52.032;4.314;2023-04-21T04:49:47;21.70;;;10.13;;
18159;SDS011;9205;52.032;4.314;2023-04-21T04:52:15;25.73;;;10.47;;
18159;SDS011;9205;52.032;4.314;2023-04-21T04:54:42;20.50;;;9.93;;
18159;SDS011;9205;52.032;4.314;2023-04-21T04:57:09;24.03;;;9.97;;
18159;SDS011;9205;52.032;4.314;2023-04-21T04:59:36;24.63;;;10.47;;
18159;SDS011;9205;52.032;4.314;2023-04-21T05:02:03;21.20;;;9.00;;
18159;SDS011;9205;52.032;4.314;2023-04-21T05:04:32;23.70;;;11.20;;
18159;SDS011;9205;52.032;4.314;2023-04-21T05:07:01;26.50;;;10.93;;
18159;SDS011;9205;52.032;4.314;2023-04-21T05:09:30;29.07;;;11.77;;
18159;SDS011;9205;52.032;4.314;2023-04-21T05:11:57;22.50;;;10.13;;
18159;SDS011;9205;52.032;4.314;2023-04-21T05:14:25;24.27;;;10.80;;
18159;SDS011;9205;52.032;4.314;2023-04-21T05:16:52;26.07;;;11.90;;
18159;SDS011;9205;52.032;4.314;2023-04-21T05:19:19;22.93;;;10.97;;
18159;SDS011;9205;52.032;4.314;2023-04-21T05:21:47;24.97;;;10.93;;
18159;SDS011;9205;52.032;4.314;2023-04-21T05:24:15;27.60;;;11.23;;
18159;SDS011;9205;52.032;4.314;2023-04-21T05:26:47;23.83;;;11.10;;
18159;SDS011;9205;52.032;4.314;2023-04-21T05:29:14;25.13;;;11.47;;
18159;SDS011;9205;52.032;4.314;2023-04-21T05:31:41;27.67;;;12.50;;
18159;SDS011;9205;52.032;4.314;2023-04-21T05:34:08;24.33;;;11.10;;
18159;SDS011;9205;52.032;4.314;2023-04-21T05:36:35;25.67;;;11.70;;
18159;SDS011;9205;52.032;4.314;2023-04-21T05:39:06;24.70;;;10.97;;
18159;SDS011;9205;52.032;4.314;2023-04-21T05:41:34;22.57;;;10.97;;
18159;SDS011;9205;52.032;4.314;2023-04-21T05:44:01;25.30;;;11.40;;
18159;SDS011;9205;52.032;4.314;2023-04-21T05:46:28;25.97;;;11.30;;
18159;SDS011;9205;52.032;4.314;2023-04-21T05:48:56;27.13;;;11.97;;
18159;SDS011;9205;52.032;4.314;2023-04-21T05:51:23;27.57;;;12.20;;
18159;SDS011;9205;52.032;4.314;2023-04-21T05:53:51;28.63;;;12.17;;
18159;SDS011;9205;52.032;4.314;2023-04-21T05:56:18;28.63;;;12.63;;
18159;SDS011;9205;52.032;4.314;2023-04-21T05:58:47;28.43;;;13.20;;
18159;SDS011;9205;52.032;4.314;2023-04-21T06:01:14;28.77;;;12.03;;
18159;SDS011;9205;52.032;4.314;2023-04-21T06:03:41;26.87;;;12.07;;
18159;SDS011;9205;52.032;4.314;2023-04-21T06:06:09;30.00;;;12.57;;
18159;SDS011;9205;52.032;4.314;2023-04-21T06:08:37;33.20;;;13.27;;
18159;SDS011;9205;52.032;4.314;2023-04-21T06:11:04;29.77;;;12.30;;
18159;SDS011;9205;52.032;4.314;2023-04-21T06:13:31;30.70;;;13.77;;
18159;SDS011;9205;52.032;4.314;2023-04-21T06:16:00;38.63;;;14.97;;
18159;SDS011;9205;52.032;4.314;2023-04-21T06:18:27;33.73;;;13.73;;
18159;SDS011;9205;52.032;4.314;2023-04-21T06:20:54;33.13;;;13.80;;
18159;SDS011;9205;52.032;4.314;2023-04-21T06:23:22;34.50;;;14.53;;
18159;SDS011;9205;52.032;4.314;2023-04-21T06:25:57;47.73;;;17.07;;
18159;SDS011;9205;52.032;4.314;2023-04-21T06:28:28;31.00;;;13.83;;
18159;SDS011;9205;52.032;4.314;2023-04-21T06:30:55;34.77;;;13.70;;
18159;SDS011;9205;52.032;4.314;2023-04-21T06:33:24;29.87;;;12.87;;
18159;SDS011;9205;52.032;4.314;2023-04-21T06:35:52;38.73;;;13.77;;
18159;SDS011;9205;52.032;4.314;2023-04-21T06:38:19;35.97;;;15.07;;
18159;SDS011;9205;52.032;4.314;2023-04-21T06:40:46;31.17;;;13.80;;
18159;SDS011;9205;52.032;4.314;2023-04-21T06:43:14;31.67;;;14.07;;
18159;SDS011;9205;52.032;4.314;2023-04-21T06:45:41;29.60;;;13.07;;
18159;SDS011;9205;52.032;4.314;2023-04-21T06:48:08;37.20;;;15.03;;
18159;SDS011;9205;52.032;4.314;2023-04-21T06:50:37;31.77;;;13.90;;
18159;SDS011;9205;52.032;4.314;2023-04-21T06:53:04;33.20;;;13.53;;
18159;SDS011;9205;52.032;4.314;2023-04-21T06:55:31;38.63;;;15.50;;
18159;SDS011;9205;52.032;4.314;2023-04-21T06:57:58;35.03;;;15.53;;
18159;SDS011;9205;52.032;4.314;2023-04-21T07:00:26;36.67;;;14.07;;
18159;SDS011;9205;52.032;4.314;2023-04-21T07:02:53;35.50;;;15.07;;
18159;SDS011;9205;52.032;4.314;2023-04-21T07:05:23;40.40;;;15.37;;
18159;SDS011;9205;52.032;4.314;2023-04-21T07:07:52;37.67;;;16.20;;
18159;SDS011;9205;52.032;4.314;2023-04-21T07:10:23;35.80;;;15.57;;
18159;SDS011;9205;52.032;4.314;2023-04-21T07:12:51;36.70;;;15.47;;
18159;SDS011;9205;52.032;4.314;2023-04-21T07:15:18;36.50;;;15.17;;
18159;SDS011;9205;52.032;4.314;2023-04-21T07:17:48;40.23;;;15.50;;
18159;SDS011;9205;52.032;4.314;2023-04-21T07:20:16;40.30;;;16.70;;
18159;SDS011;9205;52.032;4.314;2023-04-21T07:22:43;38.17;;;15.83;;
18159;SDS011;9205;52.032;4.314;2023-04-21T07:25:12;36.17;;;16.50;;
18159;SDS011;9205;52.032;4.314;2023-04-21T07:27:39;39.47;;;16.23;;
18159;SDS011;9205;52.032;4.314;2023-04-21T07:30:06;37.63;;;16.40;;
18159;SDS011;9205;52.032;4.314;2023-04-21T07:32:35;37.37;;;15.13;;
18159;SDS011;9205;52.032;4.314;2023-04-21T07:35:03;36.07;;;15.03;;
18159;SDS011;9205;52.032;4.314;2023-04-21T07:37:31;41.53;;;17.23;;
18159;SDS011;9205;52.032;4.314;2023-04-21T07:39:58;41.33;;;16.10;;
18159;SDS011;9205;52.032;4.314;2023-04-21T07:42:27;39.77;;;17.43;;
18159;SDS011;9205;52.032;4.314;2023-04-21T07:44:54;42.90;;;17.17;;
18159;SDS011;9205;52.032;4.314;2023-04-21T07:47:21;46.80;;;19.17;;
18159;SDS011;9205;52.032;4.314;2023-04-21T07:49:49;41.53;;;16.83;;
18159;SDS011;9205;52.032;4.314;2023-04-21T07:52:17;45.13;;;18.40;;
18159;SDS011;9205;52.032;4.314;2023-04-21T07:54:44;45.53;;;18.67;;
18159;SDS011;9205;52.032;4.314;2023-04-21T07:57:11;43.57;;;18.13;;
18159;SDS011;9205;52.032;4.314;2023-04-21T07:59:40;41.33;;;17.43;;
18159;SDS011;9205;52.032;4.314;2023-04-21T08:02:07;44.00;;;18.87;;
18159;SDS011;9205;52.032;4.314;2023-04-21T08:04:34;47.87;;;19.23;;
18159;SDS011;9205;52.032;4.314;2023-04-21T08:07:01;49.50;;;18.47;;
18159;SDS011;9205;52.032;4.314;2023-04-21T08:09:29;47.80;;;18.97;;
18159;SDS011;9205;52.032;4.314;2023-04-21T08:11:56;45.23;;;19.20;;
18159;SDS011;9205;52.032;4.314;2023-04-21T08:14:23;47.50;;;20.30;;
18159;SDS011;9205;52.032;4.314;2023-04-21T08:16:52;45.60;;;19.73;;
18159;SDS011;9205;52.032;4.314;2023-04-21T08:19:20;47.43;;;20.97;;
18159;SDS011;9205;52.032;4.314;2023-04-21T08:21:47;45.67;;;19.80;;
18159;SDS011;9205;52.032;4.314;2023-04-21T08:24:14;44.37;;;19.47;;
18159;SDS011;9205;52.032;4.314;2023-04-21T08:26:41;47.60;;;19.87;;
18159;SDS011;9205;52.032;4.314;2023-04-21T08:29:09;44.17;;;18.87;;
18159;SDS011;9205;52.032;4.314;2023-04-21T08:31:37;45.57;;;19.67;;
18159;SDS011;9205;52.032;4.314;2023-04-21T08:34:06;43.40;;;19.70;;
18159;SDS011;9205;52.032;4.314;2023-04-21T08:36:33;39.40;;;18.30;;
18159;SDS011;9205;52.032;4.314;2023-04-21T08:39:00;43.07;;;18.37;;
18159;SDS011;9205;52.032;4.314;2023-04-21T08:41:28;39.40;;;17.93;;
18159;SDS011;9205;52.032;4.314;2023-04-21T08:43:55;38.17;;;17.67;;
18159;SDS011;9205;52.032;4.314;2023-04-21T08:46:22;38.93;;;18.77;;
18159;SDS011;9205;52.032;4.314;2023-04-21T08:48:51;36.40;;;18.30;;
18159;SDS011;9205;52.032;4.314;2023-04-21T08:51:21;38.20;;;17.30;;
18159;SDS011;9205;52.032;4.314;2023-04-21T08:53:53;38.37;;;17.87;;
18159;SDS011;9205;52.032;4.314;2023-04-21T08:56:20;38.60;;;18.13;;
18159;SDS011;9205;52.032;4.314;2023-04-21T08:58:51;36.60;;;17.50;;
18159;SDS011;9205;52.032;4.314;2023-04-21T09:01:18;41.30;;;18.87;;
18159;SDS011;9205;52.032;4.314;2023-04-21T09:03:46;38.60;;;18.57;;
18159;SDS011;9205;52.032;4.314;2023-04-21T09:06:13;40.73;;;17.93;;
18159;SDS011;9205;52.032;4.314;2023-04-21T09:08:42;36.33;;;18.10;;
18159;SDS011;9205;52.032;4.314;2023-04-21T09:11:19;36.33;;;17.60;;
18159;SDS011;9205;52.032;4.314;2023-04-21T09:13:48;31.73;;;16.00;;
18159;SDS011;9205;52.032;4.314;2023-04-21T09:16:16;39.73;;;18.17;;
18159;SDS011;9205;52.032;4.314;2023-04-21T09:18:45;31.73;;;15.73;;
18159;SDS011;9205;52.032;4.314;2023-04-21T09:21:13;37.43;;;17.50;;
18159;SDS011;9205;52.032;4.314;2023-04-21T09:23:43;33.67;;;16.17;;
18159;SDS011;9205;52.032;4.314;2023-04-21T09:26:13;33.60;;;16.27;;
18159;SDS011;9205;52.032;4.314;2023-04-21T09:28:42;27.70;;;14.23;;
18159;SDS011;9205;52.032;4.314;2023-04-21T09:31:11;30.43;;;15.23;;
18159;SDS011;9205;52.032;4.314;2023-04-21T09:33:44;42.13;;;16.53;;
18159;SDS011;9205;52.032;4.314;2023-04-21T09:36:17;27.07;;;14.10;;
18159;SDS011;9205;52.032;4.314;2023-04-21T09:38:50;29.70;;;14.77;;
18159;SDS011;9205;52.032;4.314;2023-04-21T09:41:22;26.40;;;14.20;;
18159;SDS011;9205;52.032;4.314;2023-04-21T09:43:50;33.23;;;15.90;;
18159;SDS011;9205;52.032;4.314;2023-04-21T09:46:18;30.07;;;15.10;;
18159;SDS011;9205;52.032;4.314;2023-04-21T09:48:46;32.67;;;15.80;;
18159;SDS011;9205;52.032;4.314;2023-04-21T09:51:15;36.13;;;15.30;;
18159;SDS011;9205;52.032;4.314;2023-04-21T09:53:43;28.23;;;14.30;;
18159;SDS011;9205;52.032;4.314;2023-04-21T09:56:14;28.80;;;14.00;;
18159;SDS011;9205;52.032;4.314;2023-04-21T09:58:47;25.40;;;13.37;;
18159;SDS011;9205;52.032;4.314;2023-04-21T10:01:19;24.10;;;12.60;;
18159;SDS011;9205;52.032;4.314;2023-04-21T10:03:49;25.43;;;12.77;;
18159;SDS011;9205;52.032;4.314;2023-04-21T10:06:18;26.30;;;13.30;;
18159;SDS011;9205;52.032;4.314;2023-04-21T10:08:45;28.63;;;13.53;;
18159;SDS011;9205;52.032;4.314;2023-04-21T10:11:17;21.13;;;12.63;;
18159;SDS011;9205;52.032;4.314;2023-04-21T10:13:45;28.10;;;13.87;;
18159;SDS011;9205;52.032;4.314;2023-04-21T10:16:12;20.17;;;11.50;;
18159;SDS011;9205;52.032;4.314;2023-04-21T10:18:44;24.63;;;12.40;;
18159;SDS011;9205;52.032;4.314;2023-04-21T10:21:12;24.90;;;13.20;;
18159;SDS011;9205;52.032;4.314;2023-04-21T10:23:46;25.37;;;12.33;;
18159;SDS011;9205;52.032;4.314;2023-04-21T10:26:17;26.43;;;12.93;;
18159;SDS011;9205;52.032;4.314;2023-04-21T10:28:51;22.37;;;12.50;;
18159;SDS011;9205;52.032;4.314;2023-04-21T10:31:22;25.17;;;13.33;;
18159;SDS011;9205;52.032;4.314;2023-04-21T10:34:11;25.20;;;12.70;;
18159;SDS011;9205;52.032;4.314;2023-04-21T10:37:10;23.33;;;12.40;;
18159;SDS011;9205;52.032;4.314;2023-04-21T10:39:48;21.97;;;11.70;;
18159;SDS011;9205;52.032;4.314;2023-04-21T10:42:22;22.60;;;12.13;;
18159;SDS011;9205;52.032;4.314;2023-04-21T10:45:08;21.50;;;11.73;;
18159;SDS011;9205;52.032;4.314;2023-04-21T10:47:39;21.17;;;11.40;;
18159;SDS011;9205;52.032;4.314;2023-04-21T10:50:17;18.00;;;10.53;;
18159;SDS011;9205;52.032;4.314;2023-04-21T10:52:54;19.23;;;10.37;;
18159;SDS011;9205;52.032;4.314;2023-04-21T10:55:33;18.90;;;10.60;;
18159;SDS011;9205;52.032;4.314;2023-04-21T10:58:03;17.77;;;10.37;;
18159;SDS011;9205;52.032;4.314;2023-04-21T11:00:33;18.23;;;10.57;;
18159;SDS011;9205;52.032;4.314;2023-04-21T11:03:04;17.13;;;9.63;;
18159;SDS011;9205;52.032;4.314;2023-04-21T11:05:33;19.00;;;10.60;;
18159;SDS011;9205;52.032;4.314;2023-04-21T11:08:06;19.57;;;10.70;;
18159;SDS011;9205;52.032;4.314;2023-04-21T11:10:44;16.57;;;9.23;;
18159;SDS011;9205;52.032;4.314;2023-04-21T11:13:23;17.30;;;9.73;;
18159;SDS011;9205;52.032;4.314;2023-04-21T11:15:56;16.40;;;9.07;;
18159;SDS011;9205;52.032;4.314;2023-04-21T11:18:33;15.33;;;8.87;;
18159;SDS011;9205;52.032;4.314;2023-04-21T11:21:08;16.70;;;9.27;;
18159;SDS011;9205;52.032;4.314;2023-04-21T11:23:40;15.63;;;9.47;;
18159;SDS011;9205;52.032;4.314;2023-04-21T11:26:14;15.13;;;8.87;;
18159;SDS011;9205;52.032;4.314;2023-04-21T11:28:43;14.60;;;8.43;;
18159;SDS011;9205;52.032;4.314;2023-04-21T11:31:14;14.60;;;9.07;;
18159;SDS011;9205;52.032;4.314;2023-04-21T11:33:42;15.67;;;8.83;;
18159;SDS011;9205;52.032;4.314;2023-04-21T11:36:09;12.87;;;8.17;;
18159;SDS011;9205;52.032;4.314;2023-04-21T11:38:37;15.03;;;8.33;;
18159;SDS011;9205;52.032;4.314;2023-04-21T11:41:06;13.30;;;7.90;;
18159;SDS011;9205;52.032;4.314;2023-04-21T11:43:36;14.50;;;8.47;;
18159;SDS011;9205;52.032;4.314;2023-04-21T11:46:12;15.20;;;8.67;;
18159;SDS011;9205;52.032;4.314;2023-04-21T11:48:43;18.60;;;9.63;;
18159;SDS011;9205;52.032;4.314;2023-04-21T11:51:15;14.73;;;8.80;;
18159;SDS011;9205;52.032;4.314;2023-04-21T11:53:45;16.13;;;8.80;;
18159;SDS011;9205;52.032;4.314;2023-04-21T11:56:16;15.07;;;8.57;;
18159;SDS011;9205;52.032;4.314;2023-04-21T11:58:46;15.57;;;9.23;;
18159;SDS011;9205;52.032;4.314;2023-04-21T12:01:17;13.30;;;8.20;;
18159;SDS011;9205;52.032;4.314;2023-04-21T12:03:52;14.60;;;8.80;;
18159;SDS011;9205;52.032;4.314;2023-04-21T12:06:24;17.97;;;9.70;;
18159;SDS011;9205;52.032;4.314;2023-04-21T12:08:54;16.73;;;10.03;;
18159;SDS011;9205;52.032;4.314;2023-04-21T12:11:26;17.83;;;10.30;;
18159;SDS011;9205;52.032;4.314;2023-04-21T12:13:55;18.30;;;10.60;;
18159;SDS011;9205;52.032;4.314;2023-04-21T12:16:25;18.13;;;10.43;;
18159;SDS011;9205;52.032;4.314;2023-04-21T12:18:53;15.30;;;9.77;;
18159;SDS011;9205;52.032;4.314;2023-04-21T12:21:25;15.27;;;9.17;;
18159;SDS011;9205;52.032;4.314;2023-04-21T12:23:53;16.37;;;9.63;;
18159;SDS011;9205;52.032;4.314;2023-04-21T12:26:20;14.00;;;9.00;;
18159;SDS011;9205;52.032;4.314;2023-04-21T12:28:48;12.80;;;8.00;;
18159;SDS011;9205;52.032;4.314;2023-04-21T12:31:16;17.00;;;9.07;;
18159;SDS011;9205;52.032;4.314;2023-04-21T12:33:45;13.30;;;8.67;;
18159;SDS011;9205;52.032;4.314;2023-04-21T12:36:12;14.93;;;8.77;;
18159;SDS011;9205;52.032;4.314;2023-04-21T12:38:41;13.73;;;8.10;;
18159;SDS011;9205;52.032;4.314;2023-04-21T12:41:09;14.20;;;8.10;;
18159;SDS011;9205;52.032;4.314;2023-04-21T12:43:37;13.83;;;8.33;;
18159;SDS011;9205;52.032;4.314;2023-04-21T12:46:05;14.23;;;8.23;;
18159;SDS011;9205;52.032;4.314;2023-04-21T12:48:33;12.23;;;7.73;;
18159;SDS011;9205;52.032;4.314;2023-04-21T12:51:02;13.40;;;8.00;;
18159;SDS011;9205;52.032;4.314;2023-04-21T12:53:30;12.00;;;7.73;;
18159;SDS011;9205;52.032;4.314;2023-04-21T12:55:58;15.27;;;9.27;;
18159;SDS011;9205;52.032;4.314;2023-04-21T12:58:25;12.73;;;7.93;;
18159;SDS011;9205;52.032;4.314;2023-04-21T13:00:53;17.33;;;8.67;;
18159;SDS011;9205;52.032;4.314;2023-04-21T13:03:20;11.43;;;7.47;;
18159;SDS011;9205;52.032;4.314;2023-04-21T13:05:48;13.50;;;7.93;;
18159;SDS011;9205;52.032;4.314;2023-04-21T13:08:16;13.47;;;8.50;;
18159;SDS011;9205;52.032;4.314;2023-04-21T13:10:44;12.57;;;7.83;;
18159;SDS011;9205;52.032;4.314;2023-04-21T13:13:12;12.93;;;7.37;;
18159;SDS011;9205;52.032;4.314;2023-04-21T13:15:48;13.63;;;7.23;;
18159;SDS011;9205;52.032;4.314;2023-04-21T13:18:16;11.53;;;6.90;;
18159;SDS011;9205;52.032;4.314;2023-04-21T13:20:43;10.87;;;7.10;;
18159;SDS011;9205;52.032;4.314;2023-04-21T13:23:11;10.73;;;6.97;;
18159;SDS011;9205;52.032;4.314;2023-04-21T13:25:41;10.53;;;7.13;;
18159;SDS011;9205;52.032;4.314;2023-04-21T13:28:11;11.63;;;6.73;;
18159;SDS011;9205;52.032;4.314;2023-04-21T13:30:39;10.97;;;6.77;;
18159;SDS011;9205;52.032;4.314;2023-04-21T13:33:07;10.83;;;6.93;;
18159;SDS011;9205;52.032;4.314;2023-04-21T13:35:39;11.80;;;6.60;;
18159;SDS011;9205;52.032;4.314;2023-04-21T13:38:10;10.07;;;6.50;;
18159;SDS011;9205;52.032;4.314;2023-04-21T13:40:40;11.23;;;6.80;;
18159;SDS011;9205;52.032;4.314;2023-04-21T13:43:11;9.77;;;6.63;;
18159;SDS011;9205;52.032;4.314;2023-04-21T13:45:41;10.87;;;6.57;;
18159;SDS011;9205;52.032;4.314;2023-04-21T13:48:19;13.73;;;6.77;;
18159;SDS011;9205;52.032;4.314;2023-04-21T13:50:48;10.90;;;7.03;;
18159;SDS011;9205;52.032;4.314;2023-04-21T13:53:20;12.80;;;7.63;;
18159;SDS011;9205;52.032;4.314;2023-04-21T13:55:49;12.77;;;7.73;;
18159;SDS011;9205;52.032;4.314;2023-04-21T13:58:18;13.70;;;7.40;;
18159;SDS011;9205;52.032;4.314;2023-04-21T14:00:48;13.57;;;7.40;;
18159;SDS011;9205;52.032;4.314;2023-04-21T14:03:16;13.33;;;7.63;;
18159;SDS011;9205;52.032;4.314;2023-04-21T14:05:44;13.67;;;7.47;;
18159;SDS011;9205;52.032;4.314;2023-04-21T14:08:15;12.13;;;7.50;;
18159;SDS011;9205;52.032;4.314;2023-04-21T14:10:43;14.17;;;7.63;;
18159;SDS011;9205;52.032;4.314;2023-04-21T14:13:16;12.93;;;7.47;;
18159;SDS011;9205;52.032;4.314;2023-04-21T14:15:44;13.30;;;7.50;;
18159;SDS011;9205;52.032;4.314;2023-04-21T14:18:11;13.97;;;8.27;;
18159;SDS011;9205;52.032;4.314;2023-04-21T14:20:39;12.73;;;7.90;;
18159;SDS011;9205;52.032;4.314;2023-04-21T14:23:07;13.77;;;8.23;;
18159;SDS011;9205;52.032;4.314;2023-04-21T14:25:34;15.27;;;8.77;;
18159;SDS011;9205;52.032;4.314;2023-04-21T14:28:04;16.13;;;8.67;;
18159;SDS011;9205;52.032;4.314;2023-04-21T14:30:42;13.80;;;8.57;;
18159;SDS011;9205;52.032;4.314;2023-04-21T14:33:09;16.30;;;8.63;;
18159;SDS011;9205;52.032;4.314;2023-04-21T14:35:37;15.17;;;8.90;;
18159;SDS011;9205;52.032;4.314;2023-04-21T14:38:06;15.30;;;8.33;;
18159;SDS011;9205;52.032;4.314;2023-04-21T14:40:33;14.07;;;7.90;;
18159;SDS011;9205;52.032;4.314;2023-04-21T14:43:02;16.63;;;8.90;;
18159;SDS011;9205;52.032;4.314;2023-04-21T14:45:30;16.53;;;9.63;;
18159;SDS011;9205;52.032;4.314;2023-04-21T14:47:59;15.07;;;9.40;;
18159;SDS011;9205;52.032;4.314;2023-04-21T14:50:39;17.57;;;9.00;;